sensor_id;sensor_type;location;lat;lon;timestamp;P1;durP1;ratioP1;P2;durP2;ratioP2
43986;SDS011;29650;47.378;8.300;2023-04-03T00:01:31;2.03;;;1.45;;
43986;SDS011;29650;47.378;8.300;2023-04-03T00:03:59;1.50;;;1.10;;
43986;SDS011;29650;47.378;8.300;2023-04-03T00:06:26;2.03;;;1.37;;
43986;SDS011;29650;47.378;8.300;2023-04-03T00:08:53;3.20;;;1.88;;
43986;SDS011;29650;47.378;8.300;2023-04-03T00:11:20;1.88;;;1.58;;
43986;SDS011;29650;47.378;8.300;2023-04-03T00:13:47;2.80;;;1.92;;
43986;SDS011;29650;47.378;8.300;2023-04-03T00:16:15;2.75;;;1.83;;
43986;SDS011;29650;47.378;8.300;2023-04-03T00:18:42;2.13;;;1.65;;
43986;SDS011;29650;47.378;8.300;2023-04-03T00:21:11;3.78;;;2.10;;
43986;SDS011;29650;47.378;8.300;2023-04-03T00:23:38;2.92;;;1.83;;
43986;SDS011;29650;47.378;8.300;2023-04-03T00:26:05;3.13;;;1.67;;
43986;SDS011;29650;47.378;8.300;2023-04-03T00:28:32;2.05;;;1.83;;
43986;SDS011;29650;47.378;8.300;2023-04-03T00:30:59;3.75;;;1.42;;
43986;SDS011;29650;47.378;8.300;2023-04-03T00:33:26;1.85;;;1.65;;
43986;SDS011;29650;47.378;8.300;2023-04-03T00:35:53;2.20;;;1.88;;
43986;SDS011;29650;47.378;8.300;2023-04-03T00:38:21;3.38;;;1.70;;
43986;SDS011;29650;47.378;8.300;2023-04-03T00:40:49;3.75;;;2.17;;
43986;SDS011;29650;47.378;8.300;2023-04-03T00:43:17;3.13;;;1.75;;
43986;SDS011;29650;47.378;8.300;2023-04-03T00:48:13;2.40;;;1.65;;
43986;SDS011;29650;47.378;8.300;2023-04-03T00:50:44;4.03;;;2.20;;
43986;SDS011;29650;47.378;8.300;2023-04-03T00:53:13;3.90;;;2.25;;
43986;SDS011;29650;47.378;8.300;2023-04-03T00:55:45;2.60;;;1.92;;
43986;SDS011;29650;47.378;8.300;2023-04-03T00:58:14;3.90;;;2.05;;
43986;SDS011;29650;47.378;8.300;2023-04-03T01:00:44;3.60;;;2.55;;
43986;SDS011;29650;47.378;8.300;2023-04-03T01:03:21;3.30;;;2.38;;
43986;SDS011;29650;47.378;8.300;2023-04-03T01:05:48;3.42;;;2.30;;
43986;SDS011;29650;47.378;8.300;2023-04-03T01:08:15;4.45;;;2.80;;
43986;SDS011;29650;47.378;8.300;2023-04-03T01:10:42;5.97;;;2.67;;
43986;SDS011;29650;47.378;8.300;2023-04-03T01:13:25;3.08;;;2.38;;
43986;SDS011;29650;47.378;8.300;2023-04-03T01:15:53;2.65;;;2.33;;
43986;SDS011;29650;47.378;8.300;2023-04-03T01:18:21;4.47;;;3.00;;
43986;SDS011;29650;47.378;8.300;2023-04-03T01:23:32;4.75;;;2.83;;
43986;SDS011;29650;47.378;8.300;2023-04-03T01:26:10;3.08;;;2.33;;
43986;SDS011;29650;47.378;8.300;2023-04-03T01:28:38;2.83;;;1.52;;
43986;SDS011;29650;47.378;8.300;2023-04-03T01:31:08;3.13;;;2.15;;
43986;SDS011;29650;47.378;8.300;2023-04-03T01:33:42;3.30;;;2.33;;
43986;SDS011;29650;47.378;8.300;2023-04-03T01:36:11;2.80;;;1.90;;
43986;SDS011;29650;47.378;8.300;2023-04-03T01:38:40;2.20;;;1.85;;
43986;SDS011;29650;47.378;8.300;2023-04-03T01:41:07;2.58;;;1.80;;
43986;SDS011;29650;47.378;8.300;2023-04-03T01:43:34;3.25;;;1.95;;
43986;SDS011;29650;47.378;8.300;2023-04-03T01:46:01;3.25;;;2.40;;
43986;SDS011;29650;47.378;8.300;2023-04-03T01:48:28;3.33;;;2.20;;
43986;SDS011;29650;47.378;8.300;2023-04-03T01:50:56;2.80;;;2.03;;
43986;SDS011;29650;47.378;8.300;2023-04-03T01:53:23;4.05;;;2.35;;
43986;SDS011;29650;47.378;8.300;2023-04-03T01:55:50;3.10;;;1.88;;
43986;SDS011;29650;47.378;8.300;2023-04-03T01:58:17;4.75;;;2.60;;
43986;SDS011;29650;47.378;8.300;2023-04-03T02:00:44;3.47;;;2.40;;
43986;SDS011;29650;47.378;8.300;2023-04-03T02:03:11;3.88;;;3.08;;
43986;SDS011;29650;47.378;8.300;2023-04-03T02:05:38;4.13;;;3.00;;
43986;SDS011;29650;47.378;8.300;2023-04-03T02:08:07;4.10;;;2.88;;
43986;SDS011;29650;47.378;8.300;2023-04-03T02:10:34;4.47;;;3.33;;
43986;SDS011;29650;47.378;8.300;2023-04-03T02:13:00;4.13;;;3.17;;
43986;SDS011;29650;47.378;8.300;2023-04-03T02:15:27;3.65;;;2.97;;
43986;SDS011;29650;47.378;8.300;2023-04-03T02:17:54;3.97;;;2.80;;
43986;SDS011;29650;47.378;8.300;2023-04-03T02:20:21;7.53;;;3.40;;
43986;SDS011;29650;47.378;8.300;2023-04-03T02:22:48;5.65;;;3.30;;
43986;SDS011;29650;47.378;8.300;2023-04-03T02:25:16;7.97;;;3.45;;
43986;SDS011;29650;47.378;8.300;2023-04-03T02:27:43;5.07;;;3.20;;
43986;SDS011;29650;47.378;8.300;2023-04-03T02:30:11;5.22;;;3.55;;
43986;SDS011;29650;47.378;8.300;2023-04-03T02:32:39;5.40;;;3.72;;
43986;SDS011;29650;47.378;8.300;2023-04-03T02:35:07;4.72;;;2.60;;
43986;SDS011;29650;47.378;8.300;2023-04-03T02:37:35;4.38;;;2.97;;
43986;SDS011;29650;47.378;8.300;2023-04-03T02:40:02;5.35;;;3.05;;
43986;SDS011;29650;47.378;8.300;2023-04-03T02:42:32;6.90;;;3.53;;
43986;SDS011;29650;47.378;8.300;2023-04-03T02:44:59;5.13;;;3.67;;
43986;SDS011;29650;47.378;8.300;2023-04-03T02:47:26;3.88;;;2.92;;
43986;SDS011;29650;47.378;8.300;2023-04-03T02:49:53;5.03;;;3.45;;
43986;SDS011;29650;47.378;8.300;2023-04-03T02:52:20;3.70;;;2.90;;
43986;SDS011;29650;47.378;8.300;2023-04-03T02:54:47;4.68;;;3.25;;
43986;SDS011;29650;47.378;8.300;2023-04-03T02:57:14;5.13;;;3.28;;
43986;SDS011;29650;47.378;8.300;2023-04-03T02:59:43;3.28;;;2.63;;
43986;SDS011;29650;47.378;8.300;2023-04-03T03:02:10;4.67;;;2.97;;
43986;SDS011;29650;47.378;8.300;2023-04-03T03:04:37;4.63;;;2.97;;
43986;SDS011;29650;47.378;8.300;2023-04-03T03:07:04;3.67;;;3.03;;
43986;SDS011;29650;47.378;8.300;2023-04-03T03:09:31;3.90;;;2.63;;
43986;SDS011;29650;47.378;8.300;2023-04-03T03:11:59;3.50;;;2.90;;
43986;SDS011;29650;47.378;8.300;2023-04-03T03:14:26;4.15;;;2.55;;
43986;SDS011;29650;47.378;8.300;2023-04-03T03:16:54;4.40;;;2.90;;
43986;SDS011;29650;47.378;8.300;2023-04-03T03:19:21;2.88;;;2.53;;
43986;SDS011;29650;47.378;8.300;2023-04-03T03:21:48;3.13;;;2.20;;
43986;SDS011;29650;47.378;8.300;2023-04-03T03:24:15;3.83;;;2.47;;
43986;SDS011;29650;47.378;8.300;2023-04-03T03:26:42;3.90;;;2.58;;
43986;SDS011;29650;47.378;8.300;2023-04-03T03:29:09;3.58;;;2.40;;
43986;SDS011;29650;47.378;8.300;2023-04-03T03:31:36;3.03;;;2.38;;
43986;SDS011;29650;47.378;8.300;2023-04-03T03:34:04;3.10;;;2.50;;
43986;SDS011;29650;47.378;8.300;2023-04-03T03:36:31;6.75;;;3.17;;
43986;SDS011;29650;47.378;8.300;2023-04-03T03:38:58;3.63;;;3.03;;
43986;SDS011;29650;47.378;8.300;2023-04-03T03:41:25;2.92;;;2.30;;
43986;SDS011;29650;47.378;8.300;2023-04-03T03:43:52;2.67;;;2.40;;
43986;SDS011;29650;47.378;8.300;2023-04-03T03:46:19;3.72;;;2.53;;
43986;SDS011;29650;47.378;8.300;2023-04-03T03:48:46;4.85;;;2.42;;
43986;SDS011;29650;47.378;8.300;2023-04-03T03:51:14;2.67;;;2.33;;
43986;SDS011;29650;47.378;8.300;2023-04-03T03:53:41;4.47;;;2.43;;
43986;SDS011;29650;47.378;8.300;2023-04-03T03:56:08;4.03;;;2.92;;
43986;SDS011;29650;47.378;8.300;2023-04-03T03:58:35;2.72;;;2.00;;
43986;SDS011;29650;47.378;8.300;2023-04-03T04:01:02;3.47;;;2.85;;
43986;SDS011;29650;47.378;8.300;2023-04-03T04:03:30;4.18;;;2.55;;
43986;SDS011;29650;47.378;8.300;2023-04-03T04:05:57;4.05;;;2.40;;
43986;SDS011;29650;47.378;8.300;2023-04-03T04:08:26;3.30;;;2.65;;
43986;SDS011;29650;47.378;8.300;2023-04-03T04:10:53;2.33;;;2.10;;
43986;SDS011;29650;47.378;8.300;2023-04-03T04:13:20;3.42;;;2.60;;
43986;SDS011;29650;47.378;8.300;2023-04-03T04:15:47;3.92;;;2.63;;
43986;SDS011;29650;47.378;8.300;2023-04-03T04:18:14;4.78;;;3.17;;
43986;SDS011;29650;47.378;8.300;2023-04-03T04:20:40;4.47;;;3.10;;
43986;SDS011;29650;47.378;8.300;2023-04-03T04:23:07;4.75;;;2.97;;
43986;SDS011;29650;47.378;8.300;2023-04-03T04:25:36;4.25;;;3.03;;
43986;SDS011;29650;47.378;8.300;2023-04-03T04:28:03;4.13;;;2.95;;
43986;SDS011;29650;47.378;8.300;2023-04-03T04:30:30;5.10;;;2.85;;
43986;SDS011;29650;47.378;8.300;2023-04-03T04:32:57;3.30;;;2.67;;
43986;SDS011;29650;47.378;8.300;2023-04-03T04:35:24;4.28;;;3.15;;
43986;SDS011;29650;47.378;8.300;2023-04-03T04:37:51;4.28;;;2.90;;
43986;SDS011;29650;47.378;8.300;2023-04-03T04:40:18;4.30;;;2.80;;
43986;SDS011;29650;47.378;8.300;2023-04-03T04:42:47;4.78;;;3.10;;
43986;SDS011;29650;47.378;8.300;2023-04-03T04:45:14;3.13;;;2.30;;
43986;SDS011;29650;47.378;8.300;2023-04-03T04:47:41;4.07;;;3.17;;
43986;SDS011;29650;47.378;8.300;2023-04-03T04:50:08;4.40;;;3.53;;
43986;SDS011;29650;47.378;8.300;2023-04-03T04:52:36;4.03;;;3.05;;
43986;SDS011;29650;47.378;8.300;2023-04-03T04:55:03;4.82;;;2.97;;
43986;SDS011;29650;47.378;8.300;2023-04-03T04:57:31;8.63;;;2.92;;
43986;SDS011;29650;47.378;8.300;2023-04-03T04:59:59;3.70;;;2.58;;
43986;SDS011;29650;47.378;8.300;2023-04-03T05:02:26;4.20;;;2.58;;
43986;SDS011;29650;47.378;8.300;2023-04-03T05:04:53;4.28;;;3.03;;
43986;SDS011;29650;47.378;8.300;2023-04-03T05:07:20;2.92;;;2.55;;
43986;SDS011;29650;47.378;8.300;2023-04-03T05:09:47;3.78;;;2.40;;
43986;SDS011;29650;47.378;8.300;2023-04-03T05:12:14;3.70;;;2.28;;
43986;SDS011;29650;47.378;8.300;2023-04-03T05:14:41;4.45;;;2.83;;
43986;SDS011;29650;47.378;8.300;2023-04-03T05:17:09;3.90;;;2.80;;
43986;SDS011;29650;47.378;8.300;2023-04-03T05:19:36;4.18;;;3.03;;
43986;SDS011;29650;47.378;8.300;2023-04-03T05:22:03;5.05;;;2.78;;
43986;SDS011;29650;47.378;8.300;2023-04-03T05:24:29;2.90;;;2.42;;
43986;SDS011;29650;47.378;8.300;2023-04-03T05:26:56;3.45;;;2.35;;
43986;SDS011;29650;47.378;8.300;2023-04-03T05:29:23;3.70;;;2.75;;
43986;SDS011;29650;47.378;8.300;2023-04-03T05:31:50;4.57;;;3.20;;
43986;SDS011;29650;47.378;8.300;2023-04-03T05:34:19;3.55;;;2.97;;
43986;SDS011;29650;47.378;8.300;2023-04-03T05:36:46;6.03;;;3.17;;
43986;SDS011;29650;47.378;8.300;2023-04-03T05:39:12;3.47;;;2.47;;
43986;SDS011;29650;47.378;8.300;2023-04-03T05:41:39;3.33;;;2.83;;
43986;SDS011;29650;47.378;8.300;2023-04-03T05:44:06;3.45;;;2.70;;
43986;SDS011;29650;47.378;8.300;2023-04-03T05:46:33;4.95;;;2.72;;
43986;SDS011;29650;47.378;8.300;2023-04-03T05:49:00;4.85;;;3.13;;
43986;SDS011;29650;47.378;8.300;2023-04-03T05:51:30;4.88;;;2.88;;
43986;SDS011;29650;47.378;8.300;2023-04-03T05:54:00;3.83;;;2.42;;
43986;SDS011;29650;47.378;8.300;2023-04-03T05:56:32;6.10;;;3.10;;
43986;SDS011;29650;47.378;8.300;2023-04-03T05:58:59;3.80;;;2.60;;
43986;SDS011;29650;47.378;8.300;2023-04-03T06:01:26;4.15;;;2.78;;
43986;SDS011;29650;47.378;8.300;2023-04-03T06:03:53;3.75;;;2.95;;
43986;SDS011;29650;47.378;8.300;2023-04-03T06:06:20;3.72;;;2.97;;
43986;SDS011;29650;47.378;8.300;2023-04-03T06:08:49;6.32;;;3.47;;
43986;SDS011;29650;47.378;8.300;2023-04-03T06:11:16;3.47;;;2.60;;
43986;SDS011;29650;47.378;8.300;2023-04-03T06:13:43;3.75;;;2.70;;
43986;SDS011;29650;47.378;8.300;2023-04-03T06:16:12;3.95;;;2.35;;
43986;SDS011;29650;47.378;8.300;2023-04-03T06:21:07;5.20;;;2.70;;
43986;SDS011;29650;47.378;8.300;2023-04-03T06:23:34;2.55;;;2.30;;
43986;SDS011;29650;47.378;8.300;2023-04-03T06:26:03;4.28;;;2.30;;
43986;SDS011;29650;47.378;8.300;2023-04-03T06:28:30;3.97;;;2.05;;
43986;SDS011;29650;47.378;8.300;2023-04-03T06:30:57;3.22;;;2.25;;
43986;SDS011;29650;47.378;8.300;2023-04-03T06:33:24;2.85;;;2.13;;
43986;SDS011;29650;47.378;8.300;2023-04-03T06:35:55;2.63;;;2.15;;
43986;SDS011;29650;47.378;8.300;2023-04-03T06:38:23;3.15;;;2.40;;
43986;SDS011;29650;47.378;8.300;2023-04-03T06:40:50;3.50;;;2.17;;
43986;SDS011;29650;47.378;8.300;2023-04-03T06:43:19;3.22;;;2.13;;
43986;SDS011;29650;47.378;8.300;2023-04-03T06:45:46;3.85;;;2.25;;
43986;SDS011;29650;47.378;8.300;2023-04-03T06:48:13;4.40;;;2.40;;
43986;SDS011;29650;47.378;8.300;2023-04-03T06:50:40;3.42;;;2.30;;
43986;SDS011;29650;47.378;8.300;2023-04-03T06:53:08;4.22;;;2.35;;
43986;SDS011;29650;47.378;8.300;2023-04-03T06:55:37;4.10;;;1.77;;
43986;SDS011;29650;47.378;8.300;2023-04-03T06:58:04;3.60;;;2.60;;
43986;SDS011;29650;47.378;8.300;2023-04-03T07:00:32;3.92;;;2.40;;
43986;SDS011;29650;47.378;8.300;2023-04-03T07:02:59;3.30;;;2.20;;
43986;SDS011;29650;47.378;8.300;2023-04-03T07:05:26;2.88;;;1.83;;
43986;SDS011;29650;47.378;8.300;2023-04-03T07:07:53;2.28;;;1.55;;
43986;SDS011;29650;47.378;8.300;2023-04-03T07:10:20;4.00;;;2.08;;
43986;SDS011;29650;47.378;8.300;2023-04-03T07:12:47;5.43;;;2.58;;
43986;SDS011;29650;47.378;8.300;2023-04-03T07:15:15;3.60;;;2.45;;
43986;SDS011;29650;47.378;8.300;2023-04-03T07:17:43;3.60;;;2.38;;
43986;SDS011;29650;47.378;8.300;2023-04-03T07:20:11;2.90;;;1.98;;
43986;SDS011;29650;47.378;8.300;2023-04-03T07:22:38;3.35;;;2.28;;
43986;SDS011;29650;47.378;8.300;2023-04-03T07:25:05;5.32;;;2.10;;
43986;SDS011;29650;47.378;8.300;2023-04-03T07:27:33;2.72;;;1.60;;
43986;SDS011;29650;47.378;8.300;2023-04-03T07:30:00;2.97;;;2.20;;
43986;SDS011;29650;47.378;8.300;2023-04-03T07:32:28;3.03;;;1.60;;
43986;SDS011;29650;47.378;8.300;2023-04-03T07:34:57;2.35;;;2.10;;
43986;SDS011;29650;47.378;8.300;2023-04-03T07:37:24;3.08;;;1.90;;
43986;SDS011;29650;47.378;8.300;2023-04-03T07:39:51;3.00;;;1.88;;
43986;SDS011;29650;47.378;8.300;2023-04-03T07:42:20;3.40;;;2.03;;
43986;SDS011;29650;47.378;8.300;2023-04-03T07:44:47;3.08;;;2.42;;
43986;SDS011;29650;47.378;8.300;2023-04-03T07:47:13;2.33;;;1.73;;
43986;SDS011;29650;47.378;8.300;2023-04-03T07:49:42;1.77;;;1.67;;
43986;SDS011;29650;47.378;8.300;2023-04-03T07:52:10;3.25;;;1.63;;
43986;SDS011;29650;47.378;8.300;2023-04-03T07:54:38;2.22;;;1.67;;
43986;SDS011;29650;47.378;8.300;2023-04-03T07:57:05;2.00;;;1.25;;
43986;SDS011;29650;47.378;8.300;2023-04-03T07:59:32;1.48;;;1.30;;
43986;SDS011;29650;47.378;8.300;2023-04-03T08:01:59;1.50;;;1.38;;
43986;SDS011;29650;47.378;8.300;2023-04-03T08:04:26;2.83;;;1.50;;
43986;SDS011;29650;47.378;8.300;2023-04-03T08:06:53;2.10;;;1.70;;
43986;SDS011;29650;47.378;8.300;2023-04-03T08:09:21;2.10;;;1.55;;
43986;SDS011;29650;47.378;8.300;2023-04-03T08:11:48;3.08;;;2.00;;
43986;SDS011;29650;47.378;8.300;2023-04-03T08:14:18;3.20;;;1.33;;
43986;SDS011;29650;47.378;8.300;2023-04-03T08:16:45;2.20;;;1.30;;
43986;SDS011;29650;47.378;8.300;2023-04-03T08:19:14;1.93;;;1.57;;
43986;SDS011;29650;47.378;8.300;2023-04-03T08:21:43;2.22;;;1.48;;
43986;SDS011;29650;47.378;8.300;2023-04-03T08:24:10;4.18;;;1.67;;
43986;SDS011;29650;47.378;8.300;2023-04-03T08:26:39;1.98;;;1.25;;
43986;SDS011;29650;47.378;8.300;2023-04-03T08:29:06;1.38;;;1.27;;
43986;SDS011;29650;47.378;8.300;2023-04-03T08:31:33;2.50;;;1.80;;
43986;SDS011;29650;47.378;8.300;2023-04-03T08:34:00;2.03;;;1.40;;
43986;SDS011;29650;47.378;8.300;2023-04-03T08:36:27;2.35;;;1.60;;
43986;SDS011;29650;47.378;8.300;2023-04-03T08:38:56;2.17;;;1.52;;
43986;SDS011;29650;47.378;8.300;2023-04-03T08:41:28;1.27;;;1.17;;
43986;SDS011;29650;47.378;8.300;2023-04-03T08:44:02;2.28;;;1.65;;
43986;SDS011;29650;47.378;8.300;2023-04-03T08:46:40;2.58;;;1.52;;
43986;SDS011;29650;47.378;8.300;2023-04-03T08:49:18;1.85;;;1.30;;
43986;SDS011;29650;47.378;8.300;2023-04-03T08:51:50;3.88;;;1.60;;
43986;SDS011;29650;47.378;8.300;2023-04-03T08:54:26;2.15;;;1.52;;
43986;SDS011;29650;47.378;8.300;2023-04-03T08:56:56;3.00;;;1.85;;
43986;SDS011;29650;47.378;8.300;2023-04-03T08:59:29;1.80;;;1.10;;
43986;SDS011;29650;47.378;8.300;2023-04-03T09:02:00;1.65;;;1.20;;
43986;SDS011;29650;47.378;8.300;2023-04-03T09:04:32;3.33;;;1.67;;
43986;SDS011;29650;47.378;8.300;2023-04-03T09:07:02;2.47;;;1.70;;
43986;SDS011;29650;47.378;8.300;2023-04-03T09:09:35;2.65;;;1.50;;
43986;SDS011;29650;47.378;8.300;2023-04-03T09:12:09;2.42;;;1.45;;
43986;SDS011;29650;47.378;8.300;2023-04-03T09:14:45;5.25;;;2.10;;
43986;SDS011;29650;47.378;8.300;2023-04-03T09:17:21;2.33;;;1.40;;
43986;SDS011;29650;47.378;8.300;2023-04-03T09:19:56;2.30;;;1.35;;
43986;SDS011;29650;47.378;8.300;2023-04-03T09:22:28;3.25;;;1.77;;
43986;SDS011;29650;47.378;8.300;2023-04-03T09:24:59;2.15;;;1.52;;
43986;SDS011;29650;47.378;8.300;2023-04-03T09:27:32;1.90;;;1.50;;
43986;SDS011;29650;47.378;8.300;2023-04-03T09:30:01;1.48;;;1.38;;
43986;SDS011;29650;47.378;8.300;2023-04-03T09:32:29;3.15;;;1.52;;
43986;SDS011;29650;47.378;8.300;2023-04-03T09:34:59;3.20;;;1.58;;
43986;SDS011;29650;47.378;8.300;2023-04-03T09:37:37;1.98;;;1.30;;
43986;SDS011;29650;47.378;8.300;2023-04-03T09:40:11;1.20;;;1.10;;
43986;SDS011;29650;47.378;8.300;2023-04-03T09:42:57;2.22;;;1.40;;
43986;SDS011;29650;47.378;8.300;2023-04-03T09:45:26;2.28;;;1.23;;
43986;SDS011;29650;47.378;8.300;2023-04-03T09:48:06;2.00;;;1.20;;
43986;SDS011;29650;47.378;8.300;2023-04-03T09:50:34;1.45;;;1.35;;
43986;SDS011;29650;47.378;8.300;2023-04-03T09:53:06;2.55;;;1.75;;
43986;SDS011;29650;47.378;8.300;2023-04-03T09:55:53;2.25;;;1.50;;
43986;SDS011;29650;47.378;8.300;2023-04-03T09:58:23;1.83;;;1.50;;
43986;SDS011;29650;47.378;8.300;2023-04-03T10:00:56;1.55;;;1.33;;
43986;SDS011;29650;47.378;8.300;2023-04-03T10:03:26;1.50;;;1.40;;
43986;SDS011;29650;47.378;8.300;2023-04-03T10:05:55;2.10;;;1.58;;
43986;SDS011;29650;47.378;8.300;2023-04-03T10:08:24;2.47;;;1.60;;
43986;SDS011;29650;47.378;8.300;2023-04-03T10:11:08;1.77;;;1.40;;
43986;SDS011;29650;47.378;8.300;2023-04-03T10:13:50;7.05;;;1.92;;
43986;SDS011;29650;47.378;8.300;2023-04-03T10:16:23;2.03;;;1.77;;
43986;SDS011;29650;47.378;8.300;2023-04-03T10:18:56;1.73;;;1.40;;
43986;SDS011;29650;47.378;8.300;2023-04-03T10:21:38;2.08;;;1.40;;
43986;SDS011;29650;47.378;8.300;2023-04-03T10:24:11;1.38;;;1.27;;
43986;SDS011;29650;47.378;8.300;2023-04-03T10:26:48;2.28;;;1.48;;
43986;SDS011;29650;47.378;8.300;2023-04-03T10:29:25;2.63;;;1.45;;
43986;SDS011;29650;47.378;8.300;2023-04-03T10:32:01;1.10;;;1.00;;
43986;SDS011;29650;47.378;8.300;2023-04-03T10:34:39;2.22;;;1.42;;
43986;SDS011;29650;47.378;8.300;2023-04-03T10:37:11;0.80;;;0.80;;
43986;SDS011;29650;47.378;8.300;2023-04-03T10:39:47;2.88;;;1.15;;
43986;SDS011;29650;47.378;8.300;2023-04-03T10:42:22;1.30;;;1.20;;
43986;SDS011;29650;47.378;8.300;2023-04-03T10:45:01;3.55;;;2.03;;
43986;SDS011;29650;47.378;8.300;2023-04-03T10:47:43;1.65;;;1.55;;
43986;SDS011;29650;47.378;8.300;2023-04-03T10:50:22;1.67;;;1.50;;
43986;SDS011;29650;47.378;8.300;2023-04-03T10:52:57;2.72;;;1.40;;
43986;SDS011;29650;47.378;8.300;2023-04-03T10:55:32;2.05;;;1.60;;
43986;SDS011;29650;47.378;8.300;2023-04-03T10:58:05;4.10;;;1.80;;
43986;SDS011;29650;47.378;8.300;2023-04-03T11:00:36;1.88;;;1.40;;
43986;SDS011;29650;47.378;8.300;2023-04-03T11:03:07;3.58;;;1.50;;
43986;SDS011;29650;47.378;8.300;2023-04-03T11:05:40;2.05;;;1.25;;
43986;SDS011;29650;47.378;8.300;2023-04-03T11:08:11;2.72;;;1.42;;
43986;SDS011;29650;47.378;8.300;2023-04-03T11:10:46;2.42;;;1.60;;
43986;SDS011;29650;47.378;8.300;2023-04-03T11:13:18;2.05;;;1.38;;
43986;SDS011;29650;47.378;8.300;2023-04-03T11:15:49;2.13;;;1.45;;
43986;SDS011;29650;47.378;8.300;2023-04-03T11:18:19;1.33;;;1.23;;
43986;SDS011;29650;47.378;8.300;2023-04-03T11:20:52;1.40;;;1.15;;
43986;SDS011;29650;47.378;8.300;2023-04-03T11:23:26;1.73;;;1.38;;
43986;SDS011;29650;47.378;8.300;2023-04-03T11:25:57;2.28;;;1.48;;
43986;SDS011;29650;47.378;8.300;2023-04-03T11:28:33;1.67;;;1.40;;
43986;SDS011;29650;47.378;8.300;2023-04-03T11:33:40;1.83;;;1.42;;
43986;SDS011;29650;47.378;8.300;2023-04-03T11:36:12;4.80;;;1.48;;
43986;SDS011;29650;47.378;8.300;2023-04-03T11:38:46;1.67;;;1.58;;
43986;SDS011;29650;47.378;8.300;2023-04-03T11:41:16;4.05;;;1.75;;
43986;SDS011;29650;47.378;8.300;2023-04-03T11:43:57;1.92;;;1.35;;
43986;SDS011;29650;47.378;8.300;2023-04-03T11:52:26;2.28;;;1.42;;
43986;SDS011;29650;47.378;8.300;2023-04-03T11:58:22;1.60;;;1.50;;
43986;SDS011;29650;47.378;8.300;2023-04-03T12:00:53;1.70;;;1.30;;
43986;SDS011;29650;47.378;8.300;2023-04-03T12:06:43;1.77;;;1.55;;
43986;SDS011;29650;47.378;8.300;2023-04-03T12:09:23;2.05;;;1.60;;
43986;SDS011;29650;47.378;8.300;2023-04-03T12:11:52;2.22;;;1.67;;
43986;SDS011;29650;47.378;8.300;2023-04-03T12:14:20;1.70;;;1.50;;
43986;SDS011;29650;47.378;8.300;2023-04-03T12:16:51;3.53;;;1.30;;
43986;SDS011;29650;47.378;8.300;2023-04-03T12:19:35;1.50;;;1.30;;
43986;SDS011;29650;47.378;8.300;2023-04-03T12:22:09;6.65;;;1.98;;
43986;SDS011;29650;47.378;8.300;2023-04-03T12:24:38;2.42;;;1.67;;
43986;SDS011;29650;47.378;8.300;2023-04-03T12:27:13;1.67;;;1.48;;
43986;SDS011;29650;47.378;8.300;2023-04-03T12:29:59;1.88;;;1.60;;
43986;SDS011;29650;47.378;8.300;2023-04-03T12:32:43;1.70;;;1.60;;
43986;SDS011;29650;47.378;8.300;2023-04-03T12:35:26;2.75;;;1.50;;
43986;SDS011;29650;47.378;8.300;2023-04-03T12:40:47;2.78;;;1.85;;
43986;SDS011;29650;47.378;8.300;2023-04-03T12:43:34;2.80;;;1.83;;
43986;SDS011;29650;47.378;8.300;2023-04-03T12:46:11;2.95;;;1.75;;
43986;SDS011;29650;47.378;8.300;2023-04-03T12:48:48;2.65;;;1.48;;
43986;SDS011;29650;47.378;8.300;2023-04-03T12:51:17;4.80;;;2.10;;
43986;SDS011;29650;47.378;8.300;2023-04-03T12:53:46;2.58;;;1.45;;
43986;SDS011;29650;47.378;8.300;2023-04-03T12:56:21;1.95;;;1.40;;
43986;SDS011;29650;47.378;8.300;2023-04-03T12:58:51;2.83;;;1.60;;
43986;SDS011;29650;47.378;8.300;2023-04-03T13:01:20;4.70;;;1.52;;
43986;SDS011;29650;47.378;8.300;2023-04-03T13:03:52;2.08;;;1.33;;
43986;SDS011;29650;47.378;8.300;2023-04-03T13:06:21;2.40;;;1.52;;
43986;SDS011;29650;47.378;8.300;2023-04-03T13:08:50;1.67;;;1.58;;
43986;SDS011;29650;47.378;8.300;2023-04-03T13:11:18;3.92;;;1.88;;
43986;SDS011;29650;47.378;8.300;2023-04-03T13:13:54;1.40;;;1.30;;
43986;SDS011;29650;47.378;8.300;2023-04-03T13:16:23;2.22;;;1.70;;
43986;SDS011;29650;47.378;8.300;2023-04-03T13:18:52;2.50;;;1.73;;
43986;SDS011;29650;47.378;8.300;2023-04-03T13:21:20;3.33;;;1.70;;
43986;SDS011;29650;47.378;8.300;2023-04-03T13:23:51;2.22;;;1.83;;
43986;SDS011;29650;47.378;8.300;2023-04-03T13:26:21;1.73;;;1.40;;
43986;SDS011;29650;47.378;8.300;2023-04-03T13:28:51;3.15;;;2.05;;
43986;SDS011;29650;47.378;8.300;2023-04-03T13:31:19;2.88;;;1.85;;
43986;SDS011;29650;47.378;8.300;2023-04-03T13:33:55;2.97;;;1.83;;
43986;SDS011;29650;47.378;8.300;2023-04-03T13:36:26;3.95;;;1.98;;
43986;SDS011;29650;47.378;8.300;2023-04-03T13:39:00;2.33;;;1.30;;
43986;SDS011;29650;47.378;8.300;2023-04-03T13:41:31;4.40;;;1.70;;
43986;SDS011;29650;47.378;8.300;2023-04-03T13:46:42;2.45;;;1.80;;
43986;SDS011;29650;47.378;8.300;2023-04-03T13:49:19;3.25;;;2.00;;
43986;SDS011;29650;47.378;8.300;2023-04-03T13:51:47;1.98;;;1.40;;
43986;SDS011;29650;47.378;8.300;2023-04-03T13:54:17;4.88;;;1.25;;
43986;SDS011;29650;47.378;8.300;2023-04-03T13:56:52;1.90;;;1.48;;
43986;SDS011;29650;47.378;8.300;2023-04-03T13:59:23;2.90;;;1.83;;
43986;SDS011;29650;47.378;8.300;2023-04-03T14:01:51;1.58;;;1.38;;
43986;SDS011;29650;47.378;8.300;2023-04-03T14:04:22;2.53;;;1.73;;
43986;SDS011;29650;47.378;8.300;2023-04-03T14:06:50;1.63;;;1.45;;
43986;SDS011;29650;47.378;8.300;2023-04-03T14:09:19;1.77;;;1.55;;
43986;SDS011;29650;47.378;8.300;2023-04-03T14:14:15;1.85;;;1.30;;
43986;SDS011;29650;47.378;8.300;2023-04-03T14:16:46;2.13;;;1.42;;
43986;SDS011;29650;47.378;8.300;2023-04-03T14:19:20;2.63;;;1.45;;
43986;SDS011;29650;47.378;8.300;2023-04-03T14:21:51;3.15;;;1.42;;
43986;SDS011;29650;47.378;8.300;2023-04-03T14:24:20;6.10;;;1.95;;
43986;SDS011;29650;47.378;8.300;2023-04-03T14:26:48;3.30;;;2.03;;
43986;SDS011;29650;47.378;8.300;2023-04-03T14:29:16;1.90;;;1.10;;
43986;SDS011;29650;47.378;8.300;2023-04-03T14:31:43;2.05;;;1.38;;
43986;SDS011;29650;47.378;8.300;2023-04-03T14:34:12;1.85;;;1.50;;
43986;SDS011;29650;47.378;8.300;2023-04-03T14:36:42;2.13;;;1.35;;
43986;SDS011;29650;47.378;8.300;2023-04-03T14:39:11;3.13;;;1.70;;
43986;SDS011;29650;47.378;8.300;2023-04-03T14:41:44;2.22;;;1.45;;
43986;SDS011;29650;47.378;8.300;2023-04-03T14:44:11;2.38;;;1.70;;
43986;SDS011;29650;47.378;8.300;2023-04-03T14:46:39;2.92;;;1.70;;
43986;SDS011;29650;47.378;8.300;2023-04-03T14:49:12;2.10;;;1.58;;
43986;SDS011;29650;47.378;8.300;2023-04-03T14:51:43;2.83;;;1.80;;
43986;SDS011;29650;47.378;8.300;2023-04-03T14:54:12;2.40;;;1.50;;
43986;SDS011;29650;47.378;8.300;2023-04-03T14:56:40;3.20;;;1.85;;
43986;SDS011;29650;47.378;8.300;2023-04-03T15:01:37;2.83;;;1.60;;
43986;SDS011;29650;47.378;8.300;2023-04-03T15:04:05;6.65;;;1.77;;
43986;SDS011;29650;47.378;8.300;2023-04-03T15:06:36;7.75;;;1.80;;
43986;SDS011;29650;47.378;8.300;2023-04-03T15:09:04;2.40;;;1.40;;
43986;SDS011;29650;47.378;8.300;2023-04-03T15:11:32;2.17;;;1.65;;
43986;SDS011;29650;47.378;8.300;2023-04-03T15:13:58;1.77;;;1.65;;
43986;SDS011;29650;47.378;8.300;2023-04-03T15:16:25;3.78;;;1.40;;
43986;SDS011;29650;47.378;8.300;2023-04-03T15:18:53;1.60;;;1.30;;
43986;SDS011;29650;47.378;8.300;2023-04-03T15:21:20;2.80;;;1.80;;
43986;SDS011;29650;47.378;8.300;2023-04-03T15:23:47;3.83;;;1.50;;
43986;SDS011;29650;47.378;8.300;2023-04-03T15:26:16;2.35;;;1.50;;
43986;SDS011;29650;47.378;8.300;2023-04-03T15:28:43;3.00;;;1.57;;
43986;SDS011;29650;47.378;8.300;2023-04-03T15:31:10;1.20;;;1.10;;
43986;SDS011;29650;47.378;8.300;2023-04-03T15:33:37;3.15;;;1.63;;
43986;SDS011;29650;47.378;8.300;2023-04-03T15:36:05;1.80;;;1.17;;